createdAt,value
2022-10-07T00:02:13.222Z,14.75
2022-10-07T00:04:57.819Z,14.74
2022-10-07T00:07:35.959Z,14.73
2022-10-07T00:10:17.899Z,14.77
2022-10-07T00:12:49.943Z,14.81
2022-10-07T00:15:24.021Z,14.82
2022-10-07T00:17:55.395Z,14.79
2022-10-07T00:20:28.302Z,14.77
2022-10-07T00:23:00.891Z,14.72
2022-10-07T00:25:30.019Z,14.69
2022-10-07T00:28:12.726Z,14.68
2022-10-07T00:30:43.009Z,14.71
2022-10-07T00:33:17.982Z,14.71
2022-10-07T00:36:00.426Z,14.72
2022-10-07T00:38:43.098Z,14.77
2022-10-07T00:41:29.926Z,14.82
2022-10-07T00:44:23.344Z,14.82
2022-10-07T00:46:53.088Z,14.78
2022-10-07T00:49:27.164Z,14.74
2022-10-07T00:51:58.907Z,14.79
2022-10-07T00:54:30.256Z,14.87
2022-10-07T00:57:09.899Z,14.89
2022-10-07T00:59:42.847Z,14.88
2022-10-07T01:02:16.786Z,14.88
2022-10-07T01:04:54.743Z,14.89
2022-10-07T01:07:25.164Z,14.89
2022-10-07T01:09:58.907Z,14.83
2022-10-07T01:12:48.760Z,14.84
2022-10-07T01:15:28.042Z,14.83
2022-10-07T01:18:18.922Z,14.81
2022-10-07T01:20:59.965Z,14.79
2022-10-07T01:23:59.632Z,14.84
2022-10-07T01:26:48.239Z,14.89
2022-10-07T01:29:33.388Z,14.93
2022-10-07T01:32:12.693Z,14.95
2022-10-07T01:34:49.038Z,14.92
2022-10-07T01:37:38.708Z,14.86
2022-10-07T01:40:22.531Z,14.83
2022-10-07T01:43:04.182Z,14.87
2022-10-07T01:45:45.186Z,14.89
2022-10-07T01:48:17.826Z,14.87
2022-10-07T01:50:50.284Z,14.87
2022-10-07T01:53:54.427Z,14.89
2022-10-07T01:56:45.168Z,14.94
2022-10-07T01:59:54.581Z,14.96
2022-10-07T02:02:47.870Z,14.96
2022-10-07T02:05:29.303Z,14.96
2022-10-07T02:08:21.937Z,14.96
2022-10-07T02:11:04.410Z,14.97
2022-10-07T02:13:49.843Z,15.00
2022-10-07T02:16:33.106Z,15.02
2022-10-07T02:19:06.810Z,14.99
2022-10-07T02:21:47.342Z,14.97
2022-10-07T02:24:25.522Z,14.93
2022-10-07T02:27:12.521Z,14.83
2022-10-07T02:30:07.276Z,14.78
2022-10-07T02:32:51.592Z,14.77
2022-10-07T02:35:38.590Z,14.72
2022-10-07T02:38:16.591Z,14.75
2022-10-07T02:41:01.095Z,14.79
2022-10-07T02:43:39.973Z,14.76
2022-10-07T02:46:16.288Z,14.78
2022-10-07T02:49:04.982Z,14.84
2022-10-07T02:51:41.029Z,14.85
2022-10-07T02:54:13.414Z,14.87
2022-10-07T02:56:46.719Z,14.89
2022-10-07T02:59:23.629Z,14.89
2022-10-07T03:01:58.316Z,14.93
2022-10-07T03:04:42.109Z,14.95
2022-10-07T03:07:12.191Z,14.98
2022-10-07T03:09:50.445Z,14.97
2022-10-07T03:12:18.183Z,15.00
2022-10-07T03:14:50.694Z,15.00
2022-10-07T03:17:24.560Z,15.00
2022-10-07T03:20:15.405Z,15.00
2022-10-07T03:22:47.683Z,15.00
2022-10-07T03:25:19.742Z,15.01
2022-10-07T03:27:55.550Z,15.00
2022-10-07T11:01:24.864Z,43.72
2022-10-07T11:04:18.251Z,43.54
2022-10-07T11:06:51.182Z,42.05
2022-10-07T11:09:31.324Z,42.09
2022-10-07T11:12:04.828Z,40.86
2022-10-07T11:14:34.135Z,39.04
2022-10-07T15:58:54.820Z,20.43
2022-10-07T16:05:07.778Z,20.25
